createdAt,value
2023-05-06T00:01:16.544Z,12.63
2023-05-06T00:04:00.307Z,13.17
2023-05-06T00:06:44.050Z,13.13
2023-05-06T00:09:28.106Z,13.43
2023-05-06T00:12:11.718Z,13.55
2023-05-06T00:14:55.278Z,13.68
2023-05-06T00:17:38.887Z,13.79
2023-05-06T00:20:23.167Z,13.61
2023-05-06T00:23:06.707Z,13.62
2023-05-06T00:25:50.288Z,13.63
2023-05-06T00:28:34.304Z,13.28
2023-05-06T00:31:17.822Z,12.68
2023-05-06T00:34:01.400Z,13.44
2023-05-06T00:36:44.977Z,13.64
2023-05-06T00:39:28.513Z,13.73
2023-05-06T00:42:12.066Z,12.99
2023-05-06T00:44:55.628Z,12.96
2023-05-06T00:47:40.638Z,13.12
2023-05-06T00:50:25.255Z,12.98
2023-05-06T00:53:10.763Z,13.00
2023-05-06T00:55:54.576Z,12.99
2023-05-06T00:58:39.145Z,12.57
2023-05-06T01:01:23.060Z,12.46
2023-05-06T01:04:08.134Z,12.45
2023-05-06T01:07:34.256Z,11.97
2023-05-06T01:10:42.569Z,12.29
2023-05-06T01:13:50.138Z,12.04
2023-05-06T01:16:40.568Z,11.97
2023-05-06T01:19:49.207Z,12.08
2023-05-06T01:22:37.720Z,11.94
2023-05-06T01:25:23.768Z,11.82
2023-05-06T01:28:11.551Z,11.73
2023-05-06T01:31:17.289Z,12.01
2023-05-06T01:34:17.351Z,11.84
2023-05-06T01:37:30.360Z,11.94
2023-05-06T01:40:17.988Z,11.90
2023-05-06T01:43:06.238Z,11.86
2023-05-06T01:45:54.296Z,11.61
2023-05-06T01:48:40.775Z,11.94
2023-05-06T01:51:25.393Z,11.74
2023-05-06T01:54:09.434Z,12.02
2023-05-06T01:56:54.126Z,11.74
2023-05-06T01:59:37.720Z,12.03
2023-05-06T02:02:21.316Z,11.96
2023-05-06T02:05:05.311Z,12.03
2023-05-06T02:07:48.955Z,11.72
2023-05-06T02:10:32.520Z,11.45
2023-05-06T02:13:20.322Z,11.58
2023-05-06T02:16:04.172Z,11.61
2023-05-06T02:18:48.819Z,11.72
2023-05-06T02:21:33.160Z,11.69
2023-05-06T02:24:16.825Z,11.69
2023-05-06T02:27:00.329Z,11.46
2023-05-06T02:29:44.125Z,11.25
2023-05-06T02:32:27.681Z,11.45
2023-05-06T02:35:11.517Z,11.44
2023-05-06T02:37:56.232Z,11.56
2023-05-06T02:40:39.744Z,11.44
2023-05-06T02:43:23.447Z,11.62
2023-05-06T02:46:07.034Z,11.32
2023-05-06T02:48:50.636Z,11.31
2023-05-06T02:51:34.155Z,11.72
2023-05-06T02:54:17.672Z,11.50
2023-05-06T02:57:01.610Z,11.40
2023-05-06T02:59:45.176Z,11.39
2023-05-06T03:02:28.822Z,11.44
2023-05-06T03:05:14.954Z,11.12
2023-05-06T03:07:58.560Z,11.21
2023-05-06T03:10:42.225Z,11.30
2023-05-06T03:13:25.943Z,11.55
2023-05-06T03:16:14.403Z,11.77
2023-05-06T03:19:02.162Z,11.44
2023-05-06T03:21:46.204Z,11.16
2023-05-06T03:24:30.093Z,11.46
2023-05-06T03:27:13.857Z,11.46
2023-05-06T03:29:58.616Z,11.30
2023-05-06T03:32:42.539Z,11.15
2023-05-06T03:35:28.736Z,11.37
2023-05-06T03:38:15.314Z,10.34
2023-05-06T03:41:08.875Z,10.73
2023-05-06T03:43:52.902Z,11.08
2023-05-06T03:46:40.347Z,10.94
2023-05-06T03:49:24.378Z,10.20
2023-05-06T03:52:08.156Z,10.86
2023-05-06T03:54:52.398Z,10.93
2023-05-06T03:57:36.151Z,10.42
2023-05-06T04:00:21.070Z,11.11
2023-05-06T04:03:09.543Z,10.48
2023-05-06T04:05:59.236Z,10.38
2023-05-06T04:08:43.546Z,10.61
2023-05-06T04:11:29.592Z,10.93
2023-05-06T04:14:14.537Z,10.73
2023-05-06T04:16:58.316Z,10.46
2023-05-06T04:19:42.269Z,10.50
2023-05-06T04:22:25.936Z,10.40
2023-05-06T04:25:12.405Z,10.68
2023-05-06T04:27:57.235Z,10.22
2023-05-06T04:30:41.654Z,10.86
2023-05-06T04:33:25.792Z,10.83
2023-05-06T04:36:10.789Z,10.36
2023-05-06T04:38:58.908Z,10.75
2023-05-06T04:41:42.530Z,10.97
2023-05-06T04:44:29.645Z,10.39
2023-05-06T04:47:14.065Z,10.31
2023-05-06T04:50:01.082Z,10.31
2023-05-06T04:52:45.810Z,10.53
2023-05-06T04:55:30.575Z,10.43
2023-05-06T04:58:14.695Z,10.49
2023-05-06T05:01:03.967Z,10.51
2023-05-06T05:03:47.579Z,10.51
2023-05-06T05:06:32.295Z,10.88
2023-05-06T05:09:16.610Z,10.85
2023-05-06T05:12:03.322Z,10.39
2023-05-06T05:14:50.558Z,10.88
2023-05-06T05:17:34.199Z,10.89
2023-05-06T05:20:18.997Z,11.04
2023-05-06T05:23:02.612Z,10.73
2023-05-06T05:25:46.529Z,10.93
2023-05-06T05:28:30.675Z,11.20
2023-05-06T05:31:16.265Z,11.28
2023-05-06T05:34:00.272Z,11.45
2023-05-06T05:36:44.477Z,11.22
2023-05-06T05:39:30.826Z,11.39
2023-05-06T05:42:14.869Z,11.10
2023-05-06T05:45:00.656Z,11.14
2023-05-06T05:47:44.268Z,11.06
2023-05-06T05:50:27.827Z,11.22
2023-05-06T05:53:13.622Z,11.11
2023-05-06T05:55:57.998Z,11.04
2023-05-06T05:58:42.398Z,11.13
2023-05-06T06:01:26.237Z,10.89
2023-05-06T06:04:10.412Z,11.00
2023-05-06T06:07:01.939Z,11.12
2023-05-06T06:09:48.998Z,11.22
2023-05-06T06:12:33.719Z,10.87
2023-05-06T06:15:18.180Z,10.65
2023-05-06T06:18:03.228Z,11.14
2023-05-06T06:20:47.368Z,11.08
2023-05-06T06:23:31.118Z,10.30
2023-05-06T06:26:14.763Z,10.85
2023-05-06T06:28:58.703Z,11.02
2023-05-06T06:31:43.147Z,10.97
2023-05-06T06:34:26.733Z,11.00
2023-05-06T06:37:11.524Z,10.90
2023-05-06T06:39:55.021Z,11.11
2023-05-06T06:42:38.620Z,10.45
2023-05-06T06:45:48.162Z,10.88
2023-05-06T06:48:31.851Z,10.84
2023-05-06T06:51:15.385Z,10.72
2023-05-06T06:53:59.018Z,10.81
2023-05-06T06:56:42.541Z,10.57
2023-05-06T06:59:26.186Z,10.43
2023-05-06T07:02:09.725Z,10.80
2023-05-06T07:04:54.010Z,10.95
2023-05-06T07:07:37.591Z,10.44
2023-05-06T07:10:22.222Z,10.38
2023-05-06T07:13:05.861Z,10.72
2023-05-06T07:15:50.107Z,10.72
2023-05-06T07:18:33.627Z,10.99
2023-05-06T07:21:17.620Z,10.92
2023-05-06T07:24:01.266Z,10.51
2023-05-06T07:26:45.108Z,10.95
2023-05-06T07:29:28.657Z,10.67
2023-05-06T07:32:12.268Z,10.37
2023-05-06T07:34:55.840Z,10.47
2023-05-06T07:37:39.373Z,10.10
2023-05-06T07:40:22.984Z,10.48
2023-05-06T07:43:08.336Z,10.65
2023-05-06T07:45:52.002Z,10.93
2023-05-06T07:48:35.659Z,10.83
2023-05-06T07:51:19.558Z,10.56
2023-05-06T07:54:03.146Z,10.66
2023-05-06T07:56:46.728Z,10.78
2023-05-06T07:59:30.328Z,11.28
2023-05-06T08:02:14.182Z,11.39
2023-05-06T08:04:57.814Z,11.24
2023-05-06T08:07:42.536Z,11.29
2023-05-06T08:10:26.143Z,11.04
2023-05-06T08:13:09.772Z,11.19
2023-05-06T08:15:53.773Z,11.31
2023-05-06T08:18:37.313Z,11.40
2023-05-06T08:21:20.963Z,11.51
2023-05-06T08:24:04.800Z,11.41
2023-05-06T08:26:48.312Z,11.53
2023-05-06T08:29:31.840Z,11.57
2023-05-06T08:32:15.718Z,11.61
2023-05-06T08:35:00.795Z,11.30
2023-05-06T08:37:46.765Z,10.91
2023-05-06T08:40:33.829Z,11.08
2023-05-06T08:43:21.782Z,11.09
2023-05-06T08:46:05.397Z,10.90
2023-05-06T08:48:49.247Z,11.20
2023-05-06T08:51:35.224Z,11.25
2023-05-06T08:54:19.437Z,10.61
2023-05-06T08:57:10.385Z,10.99
2023-05-06T08:59:55.824Z,11.30
2023-05-06T09:02:42.705Z,11.09
2023-05-06T09:05:26.753Z,11.19
2023-05-06T09:08:11.808Z,11.20
2023-05-06T09:10:55.526Z,11.11
2023-05-06T09:13:39.070Z,11.27
2023-05-06T09:16:30.800Z,11.03
2023-05-06T09:19:15.437Z,11.00
2023-05-06T09:22:01.462Z,10.99
2023-05-06T09:24:46.113Z,10.97
2023-05-06T09:27:33.507Z,11.15
2023-05-06T09:30:17.373Z,11.28
2023-05-06T09:33:05.055Z,11.46
2023-05-06T09:35:51.224Z,11.32
2023-05-06T09:38:34.714Z,11.94
2023-05-06T09:41:22.993Z,11.98
2023-05-06T09:44:06.704Z,11.77
2023-05-06T09:46:50.849Z,11.58
2023-05-06T09:49:34.796Z,11.41
2023-05-06T09:52:19.638Z,11.68
2023-05-06T09:55:04.157Z,11.55
2023-05-06T09:57:51.380Z,11.60
2023-05-06T10:00:36.816Z,11.58
2023-05-06T10:03:21.640Z,11.80
2023-05-06T10:06:06.338Z,11.96
2023-05-06T10:08:51.127Z,11.58
2023-05-06T10:11:36.027Z,11.74
2023-05-06T10:14:20.263Z,11.64
2023-05-06T10:17:10.003Z,11.76
2023-05-06T10:20:00.901Z,11.49
2023-05-06T10:23:01.743Z,11.49
2023-05-06T10:25:47.707Z,11.76
2023-05-06T10:28:33.318Z,11.65
2023-05-06T10:31:17.106Z,11.59
2023-05-06T10:34:04.847Z,11.72
2023-05-06T10:36:56.698Z,11.69
2023-05-06T10:39:42.434Z,11.60
2023-05-06T10:42:34.681Z,11.60
2023-05-06T10:45:18.240Z,11.68
2023-05-06T10:48:01.693Z,11.84
2023-05-06T10:50:46.811Z,12.03
2023-05-06T10:54:18.306Z,11.78
2023-05-06T10:57:09.430Z,11.64
2023-05-06T10:59:55.644Z,11.88
2023-05-06T11:02:40.756Z,11.54
2023-05-06T11:05:25.062Z,11.78
2023-05-06T11:08:10.694Z,12.04
2023-05-06T11:10:54.950Z,11.62
2023-05-06T11:13:38.537Z,11.40
2023-05-06T11:16:48.812Z,11.49
2023-05-06T11:19:39.310Z,11.65
2023-05-06T11:22:41.171Z,11.13
2023-05-06T11:25:42.813Z,11.28
2023-05-06T11:28:28.867Z,11.19
2023-05-06T11:31:14.433Z,11.76
2023-05-06T11:34:01.938Z,11.89
2023-05-06T11:36:53.705Z,11.76
2023-05-06T11:39:40.726Z,11.38
2023-05-06T11:42:29.322Z,11.34
2023-05-06T11:45:12.975Z,11.60
2023-05-06T11:47:56.575Z,11.41
2023-05-06T11:50:48.383Z,11.19
2023-05-06T11:53:31.951Z,11.69
2023-05-06T11:56:15.553Z,11.93
2023-05-06T11:58:59.079Z,11.72
2023-05-06T12:01:44.270Z,11.57
2023-05-06T12:04:28.119Z,11.56
2023-05-06T12:07:14.286Z,11.96
2023-05-06T12:09:59.236Z,11.71
2023-05-06T12:12:43.760Z,11.68
2023-05-06T12:15:27.546Z,11.11
2023-05-06T12:18:12.818Z,10.89
2023-05-06T12:20:57.690Z,10.92
2023-05-06T12:23:57.152Z,10.87
2023-05-06T12:26:48.983Z,10.40
2023-05-06T12:29:32.658Z,10.62
2023-05-06T12:32:16.378Z,10.96
2023-05-06T12:35:05.857Z,11.06
2023-05-06T12:37:49.544Z,11.13
2023-05-06T12:40:33.483Z,11.24
2023-05-06T12:43:17.135Z,11.20
2023-05-06T12:46:06.100Z,11.49
2023-05-06T12:49:05.688Z,11.72
2023-05-06T12:52:06.971Z,11.64
2023-05-06T12:54:53.024Z,11.77
2023-05-06T12:57:37.077Z,11.03
2023-05-06T13:00:20.971Z,11.38
2023-05-06T13:03:04.868Z,11.54
2023-05-06T13:05:51.990Z,11.74
2023-05-06T13:08:36.221Z,11.18
2023-05-06T13:11:19.805Z,11.67
2023-05-06T13:14:03.339Z,11.47
2023-05-06T13:16:47.127Z,11.33
2023-05-06T13:19:33.012Z,11.63
2023-05-06T13:22:17.308Z,11.37
2023-05-06T13:25:01.689Z,10.55
2023-05-06T13:27:45.199Z,10.45
2023-05-06T13:30:28.891Z,11.13
2023-05-06T13:33:12.572Z,11.38
2023-05-06T13:35:56.128Z,10.76
2023-05-06T13:38:39.933Z,11.16
2023-05-06T13:41:24.931Z,11.24
2023-05-06T13:44:08.595Z,11.81
2023-05-06T13:46:52.771Z,11.69
2023-05-06T13:49:36.447Z,11.57
2023-05-06T13:52:20.009Z,11.32
2023-05-06T13:55:03.789Z,11.31
2023-05-06T13:57:47.303Z,11.48
2023-05-06T14:00:31.072Z,11.51
2023-05-06T14:03:14.621Z,11.33
2023-05-06T14:05:58.225Z,10.61
2023-05-06T14:08:42.224Z,11.05
2023-05-06T14:11:25.834Z,11.08
2023-05-06T14:14:09.357Z,11.24
2023-05-06T14:16:54.664Z,10.34
2023-05-06T14:19:38.260Z,11.12
2023-05-06T14:22:21.832Z,11.36
2023-05-06T14:25:06.031Z,11.28
2023-05-06T14:27:49.516Z,11.40
2023-05-06T14:30:34.386Z,11.43
2023-05-06T14:33:17.937Z,10.93
2023-05-06T14:36:03.530Z,10.63
2023-05-06T14:38:47.158Z,10.97
2023-05-06T14:41:31.197Z,11.12
2023-05-06T14:44:15.397Z,11.39
2023-05-06T14:46:59.029Z,11.53
2023-05-06T14:49:42.555Z,11.47
2023-05-06T14:52:27.105Z,11.64
2023-05-06T14:55:11.953Z,11.82
2023-05-06T14:57:55.780Z,11.95
2023-05-06T15:00:39.280Z,11.90
2023-05-06T15:03:22.792Z,11.64
2023-05-06T15:06:06.739Z,10.75
2023-05-06T15:08:51.153Z,11.01
2023-05-06T15:11:34.676Z,11.12
2023-05-06T15:14:18.307Z,10.93
2023-05-06T15:17:01.946Z,10.79
2023-05-06T15:19:45.996Z,11.19
2023-05-06T15:22:29.524Z,11.60
2023-05-06T15:25:22.482Z,11.60
2023-05-06T15:28:14.269Z,11.77
2023-05-06T15:30:57.876Z,11.36
2023-05-06T15:33:41.826Z,11.57
2023-05-06T15:36:26.836Z,11.19
2023-05-06T15:39:10.313Z,11.69
2023-05-06T15:41:54.085Z,12.22
2023-05-06T15:44:37.735Z,11.69
2023-05-06T15:47:21.439Z,11.82
2023-05-06T15:50:16.362Z,11.70
2023-05-06T15:53:04.683Z,11.81
2023-05-06T15:55:56.698Z,11.80
2023-05-06T15:58:43.789Z,12.10
2023-05-06T16:01:54.100Z,11.75
2023-05-06T16:04:31.418Z,11.73
2023-05-06T16:07:15.790Z,11.78
2023-05-06T16:09:59.304Z,11.71
2023-05-06T16:12:42.881Z,12.02
2023-05-06T16:15:26.479Z,12.09
2023-05-06T16:18:11.012Z,12.11
2023-05-06T16:20:54.561Z,11.84
2023-05-06T16:23:38.230Z,12.11
2023-05-06T16:26:24.828Z,11.87
2023-05-06T16:29:08.479Z,12.11
2023-05-06T16:31:52.243Z,11.55
2023-05-06T16:34:38.975Z,11.66
2023-05-06T16:37:24.256Z,11.19
2023-05-06T16:40:09.333Z,11.53
2023-05-06T16:42:53.066Z,11.38
2023-05-06T16:45:36.749Z,11.35
2023-05-06T16:48:20.735Z,11.67
2023-05-06T16:51:04.391Z,11.55
2023-05-06T16:53:48.225Z,11.57
2023-05-06T16:56:43.853Z,11.32
2023-05-06T16:59:34.797Z,11.72
2023-05-06T17:02:18.390Z,11.52
2023-05-06T17:05:01.910Z,11.68
2023-05-06T17:07:46.257Z,11.58
2023-05-06T17:10:33.120Z,12.04
2023-05-06T17:13:16.801Z,11.87
2023-05-06T17:16:00.520Z,11.83
2023-05-06T17:18:44.077Z,11.31
2023-05-06T17:21:28.092Z,11.23
2023-05-06T17:24:11.718Z,11.09
2023-05-06T17:26:55.582Z,11.13
2023-05-06T17:29:39.199Z,11.10
2023-05-06T17:32:23.044Z,11.26
2023-05-06T17:35:07.752Z,11.21
2023-05-06T17:37:51.894Z,10.97
2023-05-06T17:40:35.578Z,11.23
2023-05-06T17:43:19.393Z,10.98
2023-05-06T17:46:03.109Z,11.01
2023-05-06T17:48:46.830Z,10.90
2023-05-06T17:51:30.428Z,10.95
2023-05-06T17:54:14.034Z,11.14
2023-05-06T17:56:57.656Z,10.90
2023-05-06T17:59:41.261Z,11.25
2023-05-06T18:02:24.818Z,11.33
2023-05-06T18:05:09.051Z,11.37
2023-05-06T18:07:52.984Z,11.29
2023-05-06T18:10:36.524Z,11.12
2023-05-06T18:13:20.116Z,11.18
2023-05-06T18:16:06.998Z,11.00
2023-05-06T18:18:50.725Z,11.22
2023-05-06T18:21:35.367Z,11.13
2023-05-06T18:24:19.021Z,10.94
2023-05-06T18:27:05.027Z,11.29
2023-05-06T18:29:48.737Z,11.13
2023-05-06T18:32:32.630Z,11.48
2023-05-06T18:35:16.200Z,11.41
2023-05-06T18:37:59.767Z,10.54
2023-05-06T18:40:46.113Z,11.00
2023-05-06T18:43:30.946Z,10.77
2023-05-06T18:46:14.526Z,10.60
2023-05-06T18:48:59.214Z,10.69
2023-05-06T18:51:42.788Z,10.83
2023-05-06T18:54:26.362Z,11.02
2023-05-06T18:57:10.567Z,11.10
2023-05-06T18:59:54.112Z,10.76
2023-05-06T19:02:38.091Z,10.88
2023-05-06T19:05:21.803Z,10.50
2023-05-06T19:08:05.682Z,10.40
2023-05-06T19:10:49.202Z,10.24
2023-05-06T19:13:32.777Z,10.51
2023-05-06T19:16:16.558Z,10.24
2023-05-06T19:19:02.659Z,10.51
2023-05-06T19:21:46.207Z,10.21
2023-05-06T19:24:30.975Z,10.60
2023-05-06T19:27:14.475Z,10.70
2023-05-06T19:29:57.935Z,10.59
2023-05-06T19:32:41.481Z,10.50
2023-05-06T19:35:25.033Z,10.39
2023-05-06T19:38:09.332Z,10.54
2023-05-06T19:40:53.591Z,10.49
2023-05-06T19:43:44.806Z,10.74
2023-05-06T19:46:28.463Z,10.86
2023-05-06T19:49:12.063Z,10.73
2023-05-06T19:51:56.064Z,10.65
2023-05-06T19:54:39.919Z,10.12
2023-05-06T19:57:23.521Z,10.51
2023-05-06T20:00:12.248Z,10.28
2023-05-06T20:02:59.435Z,9.99
2023-05-06T20:05:43.178Z,10.53
2023-05-06T20:08:27.543Z,10.20
2023-05-06T20:11:11.443Z,10.60
2023-05-06T20:13:54.964Z,10.34
2023-05-06T20:16:39.119Z,10.60
2023-05-06T20:19:23.950Z,10.75
2023-05-06T20:22:07.555Z,10.65
2023-05-06T20:24:51.492Z,10.59
2023-05-06T20:27:35.193Z,10.42
2023-05-06T20:30:18.940Z,10.37
2023-05-06T20:33:02.585Z,10.33
2023-05-06T20:35:46.228Z,10.41
2023-05-06T20:38:31.023Z,10.72
2023-05-06T20:41:14.808Z,10.36
2023-05-06T20:43:58.456Z,10.49
2023-05-06T20:46:41.983Z,10.29
2023-05-06T20:49:26.739Z,10.16
2023-05-06T20:52:14.534Z,10.54
2023-05-06T20:54:58.396Z,10.42
2023-05-06T20:57:45.349Z,10.46
2023-05-06T21:00:28.905Z,10.54
2023-05-06T21:03:12.579Z,10.45
2023-05-06T21:05:56.227Z,10.50
2023-05-06T21:08:39.852Z,10.37
2023-05-06T21:11:23.502Z,10.40
2023-05-06T21:14:07.557Z,10.06
2023-05-06T21:16:52.378Z,10.55
2023-05-06T21:19:36.086Z,10.47
2023-05-06T21:22:24.334Z,10.72
2023-05-06T21:25:09.289Z,10.07
2023-05-06T21:27:53.082Z,10.06
2023-05-06T21:30:38.218Z,9.98
2023-05-06T21:33:21.775Z,10.22
2023-05-06T21:36:05.983Z,10.19
2023-05-06T21:39:05.680Z,10.00
2023-05-06T21:41:49.291Z,10.14
2023-05-06T21:44:32.837Z,10.01
2023-05-06T21:47:16.379Z,9.83
2023-05-06T21:49:59.931Z,10.23
2023-05-06T21:52:43.520Z,10.33
2023-05-06T21:55:29.906Z,10.34
2023-05-06T21:58:13.439Z,10.50
2023-05-06T22:00:56.962Z,10.31
2023-05-06T22:03:40.633Z,10.20
2023-05-06T22:06:24.338Z,10.16
2023-05-06T22:09:10.536Z,10.36
2023-05-06T22:11:54.130Z,10.32
2023-05-06T22:14:41.555Z,10.20
2023-05-06T22:17:26.018Z,9.99
2023-05-06T22:20:11.151Z,10.06
2023-05-06T22:22:54.822Z,9.75
2023-05-06T22:25:38.790Z,10.19
2023-05-06T22:28:22.390Z,10.28
2023-05-06T22:31:06.311Z,10.37
2023-05-06T22:33:54.530Z,10.21
2023-05-06T22:36:38.276Z,10.29
2023-05-06T22:39:24.368Z,10.19
2023-05-06T22:42:08.667Z,9.87
2023-05-06T22:44:52.297Z,10.32
2023-05-06T22:47:35.962Z,10.58
2023-05-06T22:50:19.536Z,10.47
2023-05-06T22:53:13.712Z,10.72
2023-05-06T22:55:58.882Z,10.73
2023-05-06T22:58:42.392Z,10.81
2023-05-06T23:01:31.812Z,10.76
2023-05-06T23:04:15.669Z,10.29
2023-05-06T23:06:59.364Z,10.50
2023-05-06T23:09:42.925Z,10.68
2023-05-06T23:12:27.859Z,11.00
2023-05-06T23:15:11.838Z,10.52
2023-05-06T23:17:55.782Z,10.42
2023-05-06T23:20:39.317Z,10.43
2023-05-06T23:23:22.847Z,10.31
2023-05-06T23:26:06.418Z,10.42
2023-05-06T23:28:49.959Z,10.56
2023-05-06T23:31:33.587Z,10.57
2023-05-06T23:34:17.139Z,10.36
2023-05-06T23:37:00.994Z,10.04
2023-05-06T23:39:44.790Z,10.39
2023-05-06T23:42:28.394Z,10.52
2023-05-06T23:45:12.293Z,10.59
2023-05-06T23:47:57.111Z,10.41
2023-05-06T23:50:40.847Z,10.44
2023-05-06T23:53:24.395Z,10.47
2023-05-06T23:56:08.243Z,10.63
2023-05-06T23:58:51.793Z,10.73
